Time;durP1;ratioP1;P1;durP2;ratioP2;P2;SDS_P1;SDS_P2;PMS_P1;PMS_P2;Temp;Humidity;BMP_temperature;BMP_pressure;BME280_temperature;BME280_humidity;BME280_pressure;Samples;Min_cycle;Max_cycle;Signal;HPM_P1;HPM_P2
2022/12/15 00:39:10;;;;;;;42.83;26.47;;;;;;;-5.61;76.51;100567.34;5061642;28;20561;-64
2022/12/15 00:41:35;;;;;;;40.07;26.57;;;;;;;-5.59;76.69;100565.63;5053780;28;20057;-64
2022/12/15 00:44:01;;;;;;;45.33;27.03;;;;;;;-5.63;76.88;100570.78;5053032;28;20035;-63
2022/12/15 01:22:05;;;;;;;38.80;26.63;;;;;;;-5.76;77.17;100591.53;5052130;28;20051;-64
2022/12/15 01:24:32;;;;;;;42.67;26.33;;;;;;;-5.83;77.45;100591.53;5053354;28;20036;-64
2022/12/15 01:27:00;;;;;;;43.10;26.33;;;;;;;-5.85;77.29;100595.81;5051429;28;20033;-64
2022/12/15 01:29:25;;;;;;;40.43;27.33;;;;;;;-5.82;77.57;100598.44;5052986;28;20488;-64
2022/12/15 01:31:54;;;;;;;41.37;27.13;;;;;;;-5.81;77.31;100601.03;5052705;28;20069;-64
2022/12/15 01:34:21;;;;;;;39.30;26.20;;;;;;;-5.79;77.12;100593.25;5052885;28;20099;-64
2022/12/15 01:36:47;;;;;;;42.00;27.00;;;;;;;-5.81;77.56;100595.84;5035545;28;20028;-64
2022/12/15 01:39:12;;;;;;;39.40;26.63;;;;;;;-5.79;77.67;100582.91;5018399;28;20025;-64
2022/12/15 01:41:38;;;;;;;42.83;27.30;;;;;;;-5.79;77.36;100582.91;5051779;28;20029;-64
2022/12/15 01:44:22;;;;;;;44.60;27.13;;;;;;;-5.77;77.47;100583.75;5050626;28;20059;-64
2022/12/15 01:46:50;;;;;;;40.80;25.40;;;;;;;-5.82;77.74;100585.50;5042591;28;20021;-64
2022/12/15 01:49:28;;;;;;;42.90;27.57;;;;;;;-5.86;77.77;100605.31;5052972;28;20032;-64
2022/12/15 01:51:59;;;;;;;44.73;27.23;;;;;;;-5.90;77.47;100597.56;5051654;28;20110;-64
2022/12/15 01:54:34;;;;;;;37.47;26.40;;;;;;;-5.87;77.03;100615.69;5052166;28;20091;-64
2022/12/15 01:57:03;;;;;;;40.77;26.40;;;;;;;-5.88;77.71;100601.91;5050512;28;20039;-64
2022/12/15 01:59:34;;;;;;;39.22;26.23;;;;;;;-5.85;77.43;100619.13;5052260;28;20389;-64
2022/12/15 02:02:00;;;;;;;48.50;26.90;;;;;;;-5.90;77.53;100615.69;5052585;28;20082;-64
2022/12/15 02:04:29;;;;;;;43.37;27.00;;;;;;;-5.86;77.22;100620.00;5030733;28;20033;-64
2022/12/15 02:06:54;;;;;;;45.17;28.57;;;;;;;-5.89;77.44;100617.41;5032630;28;20041;-64
2022/12/15 02:09:21;;;;;;;44.07;27.93;;;;;;;-5.90;78.09;100629.50;5013987;28;20053;-63
2022/12/15 02:12:08;;;;;;;41.90;27.87;;;;;;;-5.85;77.48;100638.16;5042444;28;20508;-63
2022/12/15 02:14:33;;;;;;;42.87;28.37;;;;;;;-5.86;77.67;100638.13;5053642;28;20035;-64
2022/12/15 02:17:07;;;;;;;39.57;27.03;;;;;;;-5.86;77.66;100646.75;5052342;28;20025;-63
2022/12/15 02:20:20;;;;;;;39.80;25.83;;;;;;;-5.84;77.17;100644.19;5052296;28;20044;-64
2022/12/15 02:23:20;;;;;;;39.63;26.47;;;;;;;-5.86;77.85;100641.56;5010628;28;20499;-64
2022/12/15 02:26:09;;;;;;;45.50;26.27;;;;;;;-5.86;77.50;100641.56;5032391;28;20040;-64
2022/12/15 02:29:16;;;;;;;38.17;26.57;;;;;;;-5.89;77.33;100640.72;5030131;28;20495;-64
2022/12/15 02:32:15;;;;;;;40.33;26.50;;;;;;;-5.88;77.28;100642.44;5040195;28;20071;-64
2022/12/15 02:34:53;;;;;;;43.00;25.60;;;;;;;-5.92;77.51;100646.75;5040034;28;20735;-64
2022/12/15 02:37:22;;;;;;;41.83;27.47;;;;;;;-5.94;77.47;100648.53;5051432;28;20099;-63
2022/12/15 02:39:47;;;;;;;40.53;26.57;;;;;;;-5.95;76.94;100639.00;5050217;28;20024;-64
2022/12/15 02:42:15;;;;;;;38.17;25.87;;;;;;;-5.95;77.45;100644.19;5051069;28;20029;-64
2022/12/15 02:45:05;;;;;;;41.27;26.80;;;;;;;-5.93;77.62;100645.06;5049839;28;20100;-64
2022/12/15 02:47:59;;;;;;;37.45;25.83;;;;;;;-5.93;77.07;100643.31;5051825;28;20032;-64
2022/12/15 02:50:44;;;;;;;41.10;26.60;;;;;;;-6.00;77.45;100643.31;5036562;28;20407;-64
2022/12/15 02:53:40;;;;;;;42.27;27.20;;;;;;;-6.02;76.92;100655.41;5051350;28;20082;-64
2022/12/15 02:56:24;;;;;;;39.10;24.90;;;;;;;-6.04;77.09;100650.22;5051065;28;20029;-63
2022/12/15 02:59:00;;;;;;;42.23;26.47;;;;;;;-6.06;77.00;100648.50;5049939;28;20083;-63
2022/12/15 03:01:44;;;;;;;39.30;26.90;;;;;;;-6.05;77.34;100648.50;5050550;28;20036;-64
2022/12/15 03:04:11;;;;;;;44.00;26.63;;;;;;;-6.04;77.17;100647.63;5052439;28;20044;-64
2022/12/15 03:06:37;;;;;;;41.23;27.80;;;;;;;-6.07;77.37;100645.03;5051056;28;20349;-64
2022/12/15 03:09:03;;;;;;;43.07;27.30;;;;;;;-6.06;77.58;100649.38;5049735;28;20079;-64
2022/12/15 03:11:29;;;;;;;38.27;26.13;;;;;;;-6.12;78.27;100643.31;5051500;28;20032;-64
2022/12/15 03:13:54;;;;;;;41.70;27.53;;;;;;;-6.10;78.53;100647.63;5052618;28;20043;-64
2022/12/15 03:16:20;;;;;;;41.97;27.40;;;;;;;-6.07;78.96;100659.72;5068638;28;20041;-63
2022/12/15 03:18:51;;;;;;;43.80;27.13;;;;;;;-6.10;78.69;100652.81;5062339;28;20062;-63
2022/12/15 03:21:17;;;;;;;40.60;26.43;;;;;;;-6.08;78.53;100656.28;5068846;28;20048;-63
2022/12/15 03:23:42;;;;;;;42.20;26.90;;;;;;;-6.07;78.27;100659.72;5046292;28;20586;-64
2022/12/15 03:26:08;;;;;;;44.37;27.77;;;;;;;-6.05;78.60;100671.81;5058283;28;20078;-64
2022/12/15 03:28:34;;;;;;;43.73;27.13;;;;;;;-6.11;78.28;100668.34;5060215;28;20047;-63
2022/12/15 03:31:02;;;;;;;45.70;29.20;;;;;;;-6.14;78.78;100665.75;5059796;28;20037;-64
2022/12/15 03:33:28;;;;;;;40.37;26.07;;;;;;;-6.11;78.86;100669.22;5053866;28;20028;-63
2022/12/15 03:35:53;;;;;;;40.83;27.20;;;;;;;-6.12;78.81;100669.19;5056923;28;20457;-63
2022/12/15 03:38:21;;;;;;;41.37;27.10;;;;;;;-6.12;78.99;100671.78;5069514;28;20460;-64
2022/12/15 03:40:49;;;;;;;42.03;27.83;;;;;;;-6.09;78.67;100669.19;5053793;28;20029;-64
2022/12/15 03:43:15;;;;;;;42.23;27.30;;;;;;;-6.09;78.85;100669.19;5050428;28;20126;-63
2022/12/15 03:45:41;;;;;;;41.13;26.90;;;;;;;-6.06;78.75;100671.78;5032557;28;20055;-63
2022/12/15 03:48:06;;;;;;;41.40;27.43;;;;;;;-6.08;78.63;100678.72;5064599;28;20861;-63
2022/12/15 03:50:31;;;;;;;41.07;27.47;;;;;;;-6.07;79.11;100683.00;5068461;28;20517;-64
2022/12/15 03:52:59;;;;;;;37.47;26.33;;;;;;;-6.07;79.13;100670.94;5047913;28;20036;-64
2022/12/15 03:55:25;;;;;;;41.67;27.43;;;;;;;-6.09;79.10;100680.41;5062258;28;20116;-64
2022/12/15 03:57:51;;;;;;;41.97;27.33;;;;;;;-6.06;78.38;100684.72;5063354;28;20556;-63
2022/12/15 04:00:18;;;;;;;40.47;26.40;;;;;;;-6.07;78.56;100670.94;5055319;28;20040;-64
2022/12/15 04:02:45;;;;;;;43.47;27.20;;;;;;;-6.07;78.25;100683.00;5073462;28;20056;-63
2022/12/15 04:05:19;;;;;;;41.60;27.87;;;;;;;-6.06;79.01;100675.25;5064270;28;20033;-64
2022/12/15 04:07:45;;;;;;;43.47;28.00;;;;;;;-6.06;78.60;100677.84;5064943;28;20024;-63
2022/12/15 04:10:13;;;;;;;42.63;27.80;;;;;;;-6.08;78.44;100673.53;5070996;28;20411;-63
2022/12/15 04:12:39;;;;;;;38.00;26.07;;;;;;;-6.07;78.31;100676.09;5072722;28;20031;-63
2022/12/15 04:15:08;;;;;;;43.13;28.57;;;;;;;-6.09;78.98;100666.59;5069163;28;20021;-63
2022/12/15 04:17:34;;;;;;;40.97;27.05;;;;;;;-6.11;78.64;100656.25;5066144;28;20062;-64
2022/12/15 04:20:08;;;;;;;46.10;27.90;;;;;;;-6.17;78.94;100656.25;5034231;28;20036;-64
2022/12/15 04:22:44;;;;;;;39.90;25.67;;;;;;;-6.15;78.82;100658.84;5069022;28;20033;-63
2022/12/15 05:31:51;;;;;;;42.77;28.87;;;;;;;-6.25;80.08;100697.63;5053122;28;20108;-64
2022/12/15 05:34:30;;;;;;;43.80;29.23;;;;;;;-6.24;80.57;100704.53;5052149;28;20029;-63
2022/12/15 05:36:57;;;;;;;48.30;30.05;;;;;;;-6.27;80.37;100701.94;5052673;28;20021;-64
2022/12/15 05:39:23;;;;;;;44.97;30.63;;;;;;;-6.24;80.73;100701.94;5052700;28;20543;-63
2022/12/15 05:41:50;;;;;;;48.73;31.00;;;;;;;-6.22;80.98;100720.94;5052682;28;20108;-63
2022/12/15 05:44:16;;;;;;;48.67;29.33;;;;;;;-6.23;80.60;100715.75;5053567;28;20107;-64
2022/12/15 05:46:42;;;;;;;46.07;30.83;;;;;;;-6.25;81.07;100717.47;5034791;28;20033;-63
2022/12/15 05:49:10;;;;;;;50.20;31.60;;;;;;;-6.26;81.34;100711.44;5051473;28;20028;-63
2022/12/15 05:51:38;;;;;;;50.90;32.23;;;;;;;-6.19;81.06;100720.06;5052279;28;20029;-64
2022/12/15 05:54:04;;;;;;;48.87;31.10;;;;;;;-6.20;81.32;100720.94;5051209;28;20032;-63
2022/12/15 05:56:29;;;;;;;44.93;30.30;;;;;;;-6.17;81.57;100719.22;5051494;28;20430;-63
2022/12/15 05:58:56;;;;;;;46.07;31.83;;;;;;;-6.19;80.98;100720.06;5050826;28;20528;-64
2022/12/15 06:01:24;;;;;;;49.77;31.60;;;;;;;-6.17;81.53;100723.53;5051852;28;20448;-64
2022/12/15 06:03:50;;;;;;;48.83;34.07;;;;;;;-6.15;82.18;100729.56;5050054;28;20039;-64
2022/12/15 06:06:16;;;;;;;55.13;33.47;;;;;;;-6.13;82.49;100733.03;5052575;28;20029;-63
2022/12/15 06:08:42;;;;;;;50.50;32.73;;;;;;;-6.15;82.86;100741.66;5030202;28;20033;-63
2022/12/15 06:11:13;;;;;;;57.30;33.83;;;;;;;-6.13;82.45;100730.44;5039668;28;20027;-64
2022/12/15 06:13:39;;;;;;;48.63;31.43;;;;;;;-6.14;82.78;100720.97;5060458;28;20112;-63
2022/12/15 06:16:13;;;;;;;47.63;32.20;;;;;;;-6.15;82.86;100713.19;5057124;28;20036;-64
2022/12/15 06:18:44;;;;;;;50.93;31.57;;;;;;;-6.12;82.17;100723.53;5068505;28;20103;-64
2022/12/15 06:21:13;;;;;;;48.90;32.10;;;;;;;-6.18;82.13;100724.38;5051220;28;20086;-63
2022/12/15 06:23:40;;;;;;;52.13;32.77;;;;;;;-6.17;82.17;100729.56;5052100;28;20033;-64
2022/12/15 06:26:16;;;;;;;49.27;33.10;;;;;;;-6.24;81.91;100712.28;5052098;28;20040;-63
2022/12/15 06:28:42;;;;;;;49.20;31.63;;;;;;;-6.19;81.75;100726.13;5033664;28;20476;-64
2022/12/15 06:31:09;;;;;;;44.37;30.60;;;;;;;-6.22;81.48;100718.34;5051882;28;20112;-63
2022/12/15 06:33:36;;;;;;;47.37;30.43;;;;;;;-6.14;81.65;100727.88;5051781;28;20079;-64
2022/12/15 06:36:05;;;;;;;45.60;30.30;;;;;;;-6.17;80.89;100731.31;5051860;28;20031;-64
2022/12/15 06:38:31;;;;;;;47.30;30.63;;;;;;;-6.25;81.41;100728.69;5051810;28;20021;-63
2022/12/15 06:40:58;;;;;;;46.53;32.10;;;;;;;-6.21;81.09;100743.34;5050213;28;20039;-63
2022/12/15 06:43:24;;;;;;;47.23;32.10;;;;;;;-6.20;81.25;100746.81;5051066;28;20021;-63
2022/12/15 06:45:50;;;;;;;50.60;33.17;;;;;;;-6.18;81.46;100751.16;5051802;28;20021;-64
2022/12/15 06:48:16;;;;;;;50.40;31.70;;;;;;;-6.18;82.33;100756.31;5050540;28;20036;-64
2022/12/15 06:50:45;;;;;;;48.17;32.67;;;;;;;-6.22;83.07;100733.88;5050629;28;20430;-63
2022/12/15 06:53:17;;;;;;;46.13;30.83;;;;;;;-6.12;83.51;100739.06;5051190;28;20024;-63
2022/12/15 06:55:43;;;;;;;49.60;30.50;;;;;;;-6.17;82.56;100747.69;5051877;28;20071;-63
2022/12/15 06:58:11;;;;;;;43.37;29.67;;;;;;;-6.14;83.07;100741.66;5032999;28;20406;-63
2022/12/15 07:00:37;;;;;;;50.20;32.07;;;;;;;-6.15;83.73;100731.28;5049631;28;20197;-64
2022/12/15 07:03:05;;;;;;;47.47;30.80;;;;;;;-6.07;83.38;100739.97;5049251;28;20454;-63
2022/12/15 07:05:31;;;;;;;49.13;31.70;;;;;;;-6.08;83.25;100749.44;5051607;28;20115;-63
2022/12/15 07:07:56;;;;;;;47.13;31.20;;;;;;;-6.06;83.22;100744.25;5051770;28;20036;-63
2022/12/15 07:10:22;;;;;;;44.47;31.20;;;;;;;-6.10;83.07;100752.88;5048984;28;20386;-64
2022/12/15 07:12:48;;;;;;;47.00;29.57;;;;;;;-6.07;83.51;100758.94;5061690;28;20080;-63
2022/12/15 07:15:14;;;;;;;46.27;31.40;;;;;;;-6.08;83.89;100757.22;5047778;28;20025;-63
2022/12/15 07:17:40;;;;;;;48.80;32.00;;;;;;;-6.10;84.41;100758.94;5048987;28;20036;-63
2022/12/15 07:20:08;;;;;;;45.77;30.77;;;;;;;-6.10;84.61;100756.34;5051657;28;20472;-64
2022/12/15 07:22:34;;;;;;;47.67;30.97;;;;;;;-6.04;85.20;100756.34;5050048;28;20408;-63
2022/12/15 07:24:59;;;;;;;47.97;30.30;;;;;;;-6.01;84.82;100758.09;5057690;28;20043;-63
2022/12/15 07:27:25;;;;;;;47.13;30.27;;;;;;;-6.01;84.46;100758.94;5056638;28;20039;-63
2022/12/15 07:29:51;;;;;;;49.87;31.40;;;;;;;-6.01;84.05;100753.78;5065168;28;20032;-63
2022/12/15 07:32:20;;;;;;;46.93;30.17;;;;;;;-6.01;84.28;100760.69;5071072;28;20032;-63
2022/12/15 07:34:47;;;;;;;52.07;32.53;;;;;;;-6.01;84.67;100761.53;5069036;28;20036;-63
2022/12/15 07:37:13;;;;;;;45.17;29.17;;;;;;;-6.00;83.72;100759.81;5075187;28;20037;-63
2022/12/15 07:39:38;;;;;;;47.30;30.23;;;;;;;-6.02;83.59;100759.81;5025436;28;20314;-63
2022/12/15 07:42:04;;;;;;;48.97;32.47;;;;;;;-6.07;83.54;100763.25;5047260;28;20031;-63
2022/12/15 07:44:30;;;;;;;47.40;30.37;;;;;;;-6.03;83.47;100764.97;5073790;28;20116;-63
2022/12/15 07:46:56;;;;;;;48.57;31.37;;;;;;;-6.07;83.92;100771.03;5069206;28;20028;-63
2022/12/15 07:49:22;;;;;;;45.60;30.40;;;;;;;-6.04;84.10;100771.03;5053055;28;20063;-63
2022/12/15 07:51:48;;;;;;;50.87;31.10;;;;;;;-6.03;84.02;100764.97;5053628;28;20021;-63
2022/12/15 07:54:14;;;;;;;48.57;30.70;;;;;;;-6.06;83.48;100767.56;5053754;28;20025;-64
2022/12/15 07:56:40;;;;;;;48.50;31.67;;;;;;;-6.03;83.59;100770.16;5053318;28;20487;-63
2022/12/15 07:59:07;;;;;;;52.33;33.40;;;;;;;-6.06;83.94;100771.03;5055246;28;20036;-63
2022/12/15 08:01:33;;;;;;;50.10;31.77;;;;;;;-6.03;84.18;100777.91;5034884;28;20430;-63
2022/12/15 08:03:59;;;;;;;48.77;32.30;;;;;;;-6.05;84.39;100783.09;5047710;28;20082;-64
2022/12/15 08:06:26;;;;;;;55.40;33.40;;;;;;;-5.97;85.36;100786.59;5054190;28;20560;-63
2022/12/15 08:08:52;;;;;;;53.00;32.90;;;;;;;-5.93;85.01;100787.47;5048009;28;20882;-63
2022/12/15 08:11:20;;;;;;;57.57;33.33;;;;;;;-5.88;85.51;100788.31;5048562;28;20072;-63
2022/12/15 08:13:46;;;;;;;51.83;33.57;;;;;;;-5.84;85.42;100789.19;5053788;28;20129;-63
2022/12/15 08:16:12;;;;;;;51.90;32.90;;;;;;;-5.82;84.85;100785.75;5032701;28;20053;-63
2022/12/15 08:18:38;;;;;;;59.60;33.80;;;;;;;-5.78;85.17;100789.19;5047591;28;20110;-63
2022/12/15 08:21:09;;;;;;;54.73;35.00;;;;;;;-5.79;85.58;100785.75;5064220;28;20036;-63
2022/12/15 08:23:39;;;;;;;54.03;35.27;;;;;;;-5.72;85.90;100789.22;5050379;28;20037;-63
2022/12/15 08:26:15;;;;;;;53.92;35.30;;;;;;;-5.69;85.94;100791.81;5052110;28;20047;-63
2022/12/15 08:28:43;;;;;;;53.30;32.57;;;;;;;-5.69;85.54;100796.13;5052947;28;20035;-63
2022/12/15 08:31:12;;;;;;;53.73;34.80;;;;;;;-5.67;85.38;100802.19;5052254;28;20021;-63
2022/12/15 08:33:41;;;;;;;55.58;34.03;;;;;;;-5.65;85.72;100798.72;5056549;28;20421;-64
2022/12/15 08:36:09;;;;;;;52.00;33.33;;;;;;;-5.67;85.42;100792.69;5064974;28;20707;-63
2022/12/15 08:38:37;;;;;;;52.03;35.97;;;;;;;-5.65;85.26;100785.75;5051749;28;20036;-63
2022/12/15 08:41:30;;;;;;;55.50;36.00;;;;;;;-5.60;85.33;100791.81;5045308;28;20498;-63
2022/12/15 08:43:56;;;;;;;60.80;36.40;;;;;;;-5.58;85.23;100794.44;5030985;28;20523;-63
2022/12/15 08:46:28;;;;;;;56.10;36.83;;;;;;;-5.54;85.54;100796.16;5033384;28;20025;-63
2022/12/15 08:48:54;;;;;;;56.30;37.10;;;;;;;-5.52;85.71;100797.03;5046870;28;20480;-63
2022/12/15 08:51:20;;;;;;;58.37;36.60;;;;;;;-5.49;85.67;100799.63;5053157;28;20427;-63
2022/12/15 08:53:46;;;;;;;59.27;38.27;;;;;;;-5.46;86.25;100804.81;5053424;28;20434;-63
2022/12/15 08:56:18;;;;;;;58.20;39.10;;;;;;;-5.43;86.04;100807.41;5054088;28;20025;-63
2022/12/15 08:58:45;;;;;;;53.83;37.10;;;;;;;-5.38;86.42;100812.56;5053210;28;20471;-63
2022/12/15 09:01:17;;;;;;;56.13;36.17;;;;;;;-5.37;86.33;100810.00;5053697;28;20025;-63
2022/12/15 09:03:43;;;;;;;55.80;37.77;;;;;;;-5.32;86.42;100812.63;5057847;28;20119;-63
2022/12/15 09:06:18;;;;;;;56.40;37.17;;;;;;;-5.28;86.22;100820.38;5062794;28;20031;-63
2022/12/15 09:08:44;;;;;;;60.17;37.37;;;;;;;-5.25;86.48;100833.34;5054755;28;20083;-63
2022/12/15 09:11:10;;;;;;;59.53;38.10;;;;;;;-5.16;86.78;100831.63;5058413;28;20120;-63
2022/12/15 09:13:36;;;;;;;62.37;37.97;;;;;;;-5.15;86.71;100831.59;5031987;28;20174;-63
2022/12/15 09:16:04;;;;;;;56.97;37.17;;;;;;;-5.10;86.67;100837.66;5063857;28;20032;-63
2022/12/15 09:18:31;;;;;;;63.90;39.23;;;;;;;-5.01;86.71;100836.81;5043760;28;20025;-63
2022/12/15 09:21:02;;;;;;;55.57;37.90;;;;;;;-4.99;86.71;100832.50;5053624;28;20483;-63
2022/12/15 09:23:28;;;;;;;55.60;37.50;;;;;;;-4.93;87.04;100842.88;5051172;28;20502;-63
2022/12/15 09:26:09;;;;;;;58.63;39.10;;;;;;;-4.84;86.82;100848.06;5064734;28;20094;-63
2022/12/15 09:28:36;;;;;;;61.97;41.13;;;;;;;-4.82;87.07;100861.03;5052001;28;20044;-63
2022/12/15 09:31:03;;;;;;;56.63;39.10;;;;;;;-4.82;86.79;100864.50;5050541;28;20122;-63
2022/12/15 09:33:29;;;;;;;64.70;40.10;;;;;;;-4.77;86.49;100854.09;5053385;28;20024;-63
2022/12/15 09:35:54;;;;;;;62.23;40.33;;;;;;;-4.73;86.76;100870.56;5060204;28;20037;-63
2022/12/15 09:38:20;;;;;;;61.30;40.37;;;;;;;-4.70;86.87;100865.38;5050623;28;20029;-63
2022/12/15 09:40:47;;;;;;;58.43;40.60;;;;;;;-4.64;86.72;100868.81;5051035;28;20021;-63
2022/12/15 09:43:20;;;;;;;62.47;40.13;;;;;;;-4.53;86.80;100868.78;5052216;28;20039;-63
2022/12/15 09:45:55;;;;;;;58.53;40.27;;;;;;;-4.43;86.58;100880.03;5051100;28;20037;-63
2022/12/15 09:48:23;;;;;;;61.60;39.97;;;;;;;-4.33;86.42;100871.34;5051189;28;20025;-63
2022/12/15 09:50:53;;;;;;;56.87;39.97;;;;;;;-4.25;86.40;100885.19;5051090;28;20033;-63
2022/12/15 09:53:20;;;;;;;57.00;39.40;;;;;;;-4.19;85.92;100884.31;5049394;28;20079;-63
2022/12/15 09:55:50;;;;;;;58.87;39.93;;;;;;;-4.08;85.88;100885.16;5053247;28;20025;-63
2022/12/15 09:58:37;;;;;;;;;;;;;;;-3.94;85.70;100883.41;5053745;28;20054;-63
2022/12/15 10:01:33;;;;;;;57.00;39.60;;;;;;;-3.79;85.73;100879.88;5032373;28;20000;-63
2022/12/15 10:04:24;;;;;;;54.80;37.97;;;;;;;-3.47;85.21;100876.25;5042456;28;20028;-63
2022/12/15 10:07:10;;;;;;;56.60;38.17;;;;;;;-3.22;84.00;100871.78;5051716;28;20028;-63
2022/12/15 10:09:37;;;;;;;59.70;39.37;;;;;;;-3.09;83.06;100878.66;5051667;28;20370;-63
2022/12/15 10:12:14;;;;;;;57.57;40.57;;;;;;;-3.14;83.36;100876.94;5050324;28;20020;-63
2022/12/15 10:14:53;;;;;;;54.00;38.40;;;;;;;-3.08;83.16;100877.75;5050546;28;20021;-63
2022/12/15 10:17:21;;;;;;;58.70;38.80;;;;;;;-3.11;83.69;100861.31;5051004;28;20029;-62
2022/12/15 10:20:17;;;;;;;62.30;38.87;;;;;;;-2.93;83.51;100873.34;5052034;28;20388;-63
2022/12/15 10:22:45;;;;;;;59.37;39.23;;;;;;;-2.54;82.79;100874.72;5052006;28;20025;-63
2022/12/15 10:25:23;;;;;;;55.17;38.97;;;;;;;-2.18;81.66;100859.63;5051100;28;20025;-63
2022/12/15 10:28:06;;;;;;;51.30;37.37;;;;;;;-1.73;79.60;100875.63;5048494;28;20025;-63
2022/12/15 10:30:32;;;;;;;50.03;36.83;;;;;;;-1.37;77.85;100861.25;5060454;28;20032;-63
2022/12/15 10:33:20;;;;;;;46.47;35.40;;;;;;;-0.93;76.84;100868.41;5069886;28;20032;-63
2022/12/15 10:35:51;;;;;;;49.53;35.30;;;;;;;-0.50;76.42;100883.41;5049747;28;20033;-63
2022/12/15 10:38:50;;;;;;;47.50;36.53;;;;;;;0.12;74.96;100880.53;5056751;28;20450;-63
2022/12/15 10:41:21;;;;;;;43.87;34.60;;;;;;;0.44;72.15;100871.16;5067605;28;20507;-63
2022/12/15 10:43:52;;;;;;;44.87;34.60;;;;;;;0.74;70.83;100872.25;5051221;28;20033;-63
2022/12/15 10:46:21;;;;;;;43.13;33.67;;;;;;;0.97;69.67;100876.09;5051777;28;20036;-63
2022/12/15 10:48:48;;;;;;;45.50;33.03;;;;;;;1.18;68.80;100877.34;5049505;28;20076;-64
2022/12/15 10:51:30;;;;;;;41.53;33.35;;;;;;;1.26;69.64;100878.88;5044652;28;20032;-64
2022/12/15 10:54:08;;;;;;;45.70;33.83;;;;;;;1.37;68.94;100876.00;5042210;28;20021;-64
2022/12/15 10:56:47;;;;;;;41.75;31.65;;;;;;;1.53;68.32;100869.50;5051738;28;20056;-64
2022/12/15 10:59:35;;;;;;;41.80;31.83;;;;;;;1.65;68.01;100877.94;5051270;28;20114;-64
2022/12/15 11:02:24;;;;;;;42.92;30.67;;;;;;;1.62;69.09;100878.91;5051505;28;20017;-64
2022/12/15 11:05:01;;;;;;;40.33;31.73;;;;;;;1.47;67.24;100876.63;5051372;28;20072;-64
2022/12/15 11:07:38;;;;;;;38.47;30.73;;;;;;;1.52;66.24;100877.38;5051567;28;20021;-63
2022/12/15 11:12:50;;;;;;;43.92;33.05;;;;;;;1.44;68.12;100881.97;5051623;28;20044;-64
2022/12/15 11:13:17;;;;;;;43.20;32.15;;;;;;;1.25;67.62;100887.66;5051061;28;20045;-64
2022/12/15 11:15:45;;;;;;;41.60;33.80;;;;;;;1.13;67.24;100883.56;5051850;28;20438;-64
2022/12/15 11:18:29;;;;;;;44.75;33.10;;;;;;;1.16;68.86;100871.31;5050301;28;20412;-64
2022/12/15 11:21:23;;;;;;;44.83;32.53;;;;;;;1.19;68.35;100871.22;5051413;28;20104;-63
2022/12/15 11:24:17;;;;;;;41.65;33.25;;;;;;;1.04;68.06;100861.97;5043699;28;20029;-64
2022/12/15 11:26:55;;;;;;;46.00;34.38;;;;;;;1.00;67.60;100861.19;5036074;28;20032;-64
2022/12/15 11:29:39;;;;;;;45.47;32.83;;;;;;;1.03;68.37;100862.84;5032132;28;20495;-64
2022/12/15 11:32:05;;;;;;;48.17;34.63;;;;;;;1.05;67.81;100869.78;5030664;28;20032;-64
2022/12/15 11:34:36;;;;;;;44.10;33.97;;;;;;;1.22;68.10;100865.91;5031481;28;20021;-64
2022/12/15 11:37:15;;;;;;;47.90;33.65;;;;;;;1.47;67.54;100868.78;5031314;28;20040;-64
2022/12/15 11:40:05;;;;;;;45.33;33.43;;;;;;;1.55;67.21;100867.69;5048031;28;20052;-64
2022/12/15 11:42:58;;;;;;;43.60;34.55;;;;;;;1.69;67.14;100866.47;5049666;28;20534;-64
2022/12/15 11:45:42;;;;;;;43.57;34.13;;;;;;;1.84;66.50;100868.69;5049800;28;20032;-64
2022/12/15 11:48:19;;;;;;;41.63;32.65;;;;;;;2.06;65.94;100868.97;5049121;28;20025;-64
2022/12/15 11:50:54;;;;;;;42.95;31.85;;;;;;;2.20;63.86;100869.44;5050206;28;20550;-64
2022/12/15 11:53:46;;;;;;;39.28;30.95;;;;;;;2.41;64.97;100856.59;5051350;28;20060;-64
2022/12/15 11:56:43;;;;;;;43.03;31.07;;;;;;;2.54;63.27;100857.97;5033605;28;20013;-64
2022/12/15 11:59:15;;;;;;;42.95;31.58;;;;;;;2.47;62.56;100862.56;5043268;28;20029;-64
2022/12/15 12:01:54;;;;;;;43.72;31.42;;;;;;;2.42;63.21;100846.06;5031642;28;20025;-64
2022/12/15 12:04:23;;;;;;;41.97;31.08;;;;;;;2.60;63.19;100855.16;5048966;28;20107;-64
2022/12/15 12:07:11;;;;;;;41.83;32.20;;;;;;;2.86;63.14;100848.28;5063738;28;20144;-65
2022/12/15 12:09:45;;;;;;;38.00;30.73;;;;;;;3.02;62.69;100840.75;5055421;28;20402;-64
2022/12/15 12:12:26;;;;;;;39.30;30.83;;;;;;;3.54;61.94;100842.53;5061225;28;20086;-64
2022/12/15 12:15:31;;;;;;;37.10;28.70;;;;;;;4.37;62.65;100838.69;5060729;28;20028;-64
2022/12/15 12:18:33;;;;;;;36.40;29.80;;;;;;;4.35;61.24;100840.53;5022822;28;20037;-64
2022/12/15 12:21:09;;;;;;;36.75;29.38;;;;;;;3.74;59.68;100827.84;5048210;28;20434;-64
2022/12/15 12:23:47;;;;;;;36.78;29.02;;;;;;;3.21;60.60;100827.84;5054445;28;20024;-64
2022/12/15 12:26:30;;;;;;;39.15;31.38;;;;;;;2.77;62.61;100835.44;5054781;28;20025;-64
2022/12/15 12:29:04;;;;;;;42.58;32.60;;;;;;;2.21;63.19;100836.22;5051551;28;20024;-64
2022/12/15 12:32:10;;;;;;;45.83;32.13;;;;;;;2.31;64.57;100827.16;5051323;28;20037;-64
2022/12/15 12:34:47;;;;;;;37.95;31.90;;;;;;;1.70;64.99;100828.88;5058701;28;20037;-64
2022/12/15 12:37:22;;;;;;;44.67;33.50;;;;;;;1.56;65.97;100831.88;5052091;28;20028;-64
2022/12/15 12:39:50;;;;;;;44.67;34.42;;;;;;;1.44;66.37;100834.78;5049345;28;20071;-64
2022/12/15 12:42:31;;;;;;;44.80;34.90;;;;;;;1.42;66.86;100842.72;5049037;28;20025;-64
2022/12/15 12:45:00;;;;;;;48.05;36.40;;;;;;;1.41;67.60;100847.97;5052056;28;20151;-63
2022/12/15 12:47:32;;;;;;;46.28;37.05;;;;;;;1.34;67.50;100842.03;5047772;28;20079;-64
2022/12/15 12:50:11;;;;;;;50.30;39.00;;;;;;;1.29;67.56;100839.50;5052386;28;20013;-64
2022/12/15 12:52:37;;;;;;;51.30;38.83;;;;;;;1.33;67.51;100835.94;5059990;28;20078;-64
2022/12/15 12:55:11;;;;;;;49.17;39.60;;;;;;;1.35;67.69;100830.63;5058987;28;20016;-64
2022/12/15 12:57:39;;;;;;;47.63;37.20;;;;;;;1.35;68.32;100826.28;5037399;28;20053;-64
2022/12/15 13:00:19;;;;;;;48.33;37.97;;;;;;;1.66;67.68;100819.38;5053400;28;20021;-64
2022/12/15 13:02:53;;;;;;;48.10;38.42;;;;;;;1.97;66.63;100809.78;5034230;28;20582;-64
2022/12/15 13:05:23;;;;;;;47.95;38.38;;;;;;;2.50;65.43;100804.72;5050865;28;20495;-64
2022/12/15 13:08:05;;;;;;;48.85;37.20;;;;;;;3.39;62.54;100798.34;5053646;28;20078;-64
2022/12/15 13:10:42;;;;;;;47.17;35.92;;;;;;;4.64;60.93;100792.00;5050947;28;20388;-64
2022/12/15 13:13:26;;;;;;;41.13;33.17;;;;;;;5.84;59.04;100793.13;5033062;28;20029;-64
2022/12/15 13:16:01;;;;;;;37.83;30.80;;;;;;;6.57;55.64;100789.78;5048283;28;20025;-64
2022/12/15 13:18:26;;;;;;;39.00;30.30;;;;;;;7.09;53.52;100783.78;5051926;28;20472;-63
2022/12/15 13:20:54;;;;;;;40.85;29.77;;;;;;;7.48;52.03;100778.25;5051645;28;20052;-64
2022/12/15 13:23:22;;;;;;;37.38;28.73;;;;;;;7.94;50.70;100774.97;5052802;28;20064;-64
2022/12/15 13:25:56;;;;;;;34.38;28.50;;;;;;;8.04;50.48;100775.38;5053427;28;20040;-65
2022/12/15 13:28:24;;;;;;;40.40;29.25;;;;;;;7.46;48.75;100789.84;5051824;28;20075;-65
2022/12/15 13:31:17;;;;;;;35.13;28.50;;;;;;;6.91;53.89;100784.66;5052759;28;20134;-64
2022/12/15 13:33:56;;;;;;;41.25;30.13;;;;;;;5.91;53.06;100773.44;5052033;28;20040;-64
2022/12/15 13:36:40;;;;;;;42.00;30.30;;;;;;;5.13;55.55;100779.47;5053206;28;20025;-64
2022/12/15 13:39:11;;;;;;;41.63;30.20;;;;;;;4.56;56.70;100781.78;5053240;28;20025;-64
2022/12/15 13:41:57;;;;;;;44.05;31.23;;;;;;;4.30;56.20;100774.91;5053036;28;20431;-64
2022/12/15 13:44:23;;;;;;;42.13;30.88;;;;;;;3.96;57.42;100777.91;5040860;28;20044;-64
2022/12/15 13:46:53;;;;;;;44.50;32.72;;;;;;;3.48;58.54;100774.38;5051281;28;20115;-64
2022/12/15 13:49:24;;;;;;;;;;;;;;;3.67;59.58;100777.19;5053131;28;20100;-65
2022/12/15 13:51:49;;;;;;;44.40;32.15;;;;;;;2.99;61.97;100780.44;5051020;28;19913;-64
2022/12/15 13:54:39;;;;;;;43.45;32.80;;;;;;;2.85;61.69;100778.25;5051528;28;20102;-64
2022/12/15 13:57:04;;;;;;;42.83;33.83;;;;;;;2.42;63.06;100772.59;5052119;28;20028;-64